Terminal Aerodrome Forecast
Issued by NWS

Home | Current Version | Previous Version | Text Only | Print | Product List | Glossary On
Versions: 1 2 3 4 5 6 7 8 9 10 11 12 13 14 15 16 17 18 19 20 21 22 23
000
FTUS43 KDVN 302300
TAFCID
TAF
KCID 302326Z 3100/3124 26006KT P6SM VCSH SCT030
     FM310130 VRB02KT P6SM SKC
     FM310800 VRB02KT 3SM BR SCT250
      TEMPO 3109/3113 1SM BR SCT005
     FM311400 18008KT P6SM SKC=

USA.gov is the U.S. government's official web portal to all federal, state and local government web resources and services.